createdAt,value
2022-12-23T00:09:47.056Z,-0.05
2022-12-23T00:19:50.247Z,-0.08
2022-12-23T00:51:05.229Z,-0.12
2022-12-23T01:01:27.264Z,-0.12
2022-12-23T01:11:32.272Z,-0.11
2022-12-23T01:21:35.421Z,-0.11
2022-12-23T01:31:39.946Z,-0.11
2022-12-23T01:42:01.473Z,-0.09
2022-12-23T01:52:06.148Z,-0.08
2022-12-23T02:02:27.711Z,-0.05
2022-12-23T02:12:46.303Z,-0.04
2022-12-23T02:23:14.480Z,-0.04
2022-12-23T02:33:35.691Z,-0.06
2022-12-23T02:43:46.729Z,-0.04
2022-12-23T02:53:55.406Z,-0.03
2022-12-23T03:03:58.677Z,-0.01
2022-12-23T03:14:20.588Z,0.01
2022-12-23T03:24:35.071Z,0.02
2022-12-23T03:34:42.887Z,0.03
2022-12-23T03:45:19.150Z,0.04
2022-12-23T03:55:18.584Z,0.05
2022-12-23T04:05:27.085Z,0.03
2022-12-23T04:15:32.182Z,0.04
2022-12-23T04:25:35.233Z,0.04
2022-12-23T04:35:40.734Z,0.05
2022-12-23T04:45:44.303Z,0.04
2022-12-23T04:55:52.642Z,-0.01
2022-12-23T05:05:56.070Z,-0.01
2022-12-23T05:16:01.423Z,-0.03
2022-12-23T05:26:05.445Z,-0.06
2022-12-23T05:36:11.529Z,-0.06
2022-12-23T05:46:14.830Z,-0.05
2022-12-23T05:56:19.623Z,-0.04
2022-12-23T06:06:25.164Z,-0.06
2022-12-23T06:16:29.956Z,-0.10
2022-12-23T06:26:34.217Z,-0.07
2022-12-23T06:36:39.163Z,-0.07
2022-12-23T06:46:42.633Z,-0.06
2022-12-23T06:56:47.123Z,-0.03
2022-12-23T07:06:50.402Z,-0.02
2022-12-23T07:16:55.226Z,0.02
2022-12-23T07:26:58.554Z,0.06
2022-12-23T07:37:03.216Z,0.07
2022-12-23T07:47:06.531Z,0.09
2022-12-23T07:57:11.367Z,0.10
2022-12-23T08:07:14.713Z,0.14
2022-12-23T08:17:21.519Z,0.15
2022-12-23T08:27:24.741Z,0.19
2022-12-23T08:37:32.326Z,0.19
2022-12-23T08:47:35.751Z,0.21
2022-12-23T08:57:40.789Z,0.20
2022-12-23T09:07:45.670Z,0.19
2022-12-23T09:17:50.132Z,0.18
2022-12-23T09:27:54.457Z,0.22
2022-12-23T09:38:00.536Z,0.22
2022-12-23T09:48:08.243Z,0.24
2022-12-23T09:58:27.360Z,0.25
2022-12-23T10:08:36.108Z,0.24
2022-12-23T10:18:49.669Z,0.27
2022-12-23T10:28:59.895Z,0.27
2022-12-23T10:39:14.335Z,0.27
2022-12-23T10:49:29.407Z,0.30
2022-12-23T10:59:36.101Z,0.34
2022-12-23T11:09:43.189Z,0.38
2022-12-23T11:19:48.401Z,0.41
2022-12-23T11:29:55.108Z,0.44
2022-12-23T11:40:04.192Z,0.47
2022-12-23T11:50:30.759Z,0.49
2022-12-23T12:00:40.955Z,0.51
2022-12-23T12:10:45.611Z,0.52
2022-12-23T12:20:54.184Z,0.54
2022-12-23T12:31:04.113Z,0.54
2022-12-23T12:41:20.119Z,0.54
2022-12-23T12:51:28.022Z,0.54
2022-12-23T13:01:44.387Z,0.54
2022-12-23T13:11:55.272Z,0.52
2022-12-23T13:22:06.205Z,0.52
2022-12-23T13:32:30.669Z,0.50
2022-12-23T13:42:40.783Z,0.52
2022-12-23T13:53:02.501Z,0.53
2022-12-23T14:03:20.599Z,0.53
2022-12-23T14:13:27.166Z,0.53
2022-12-23T14:23:44.160Z,0.53
2022-12-23T14:33:49.731Z,0.53
2022-12-23T14:44:00.111Z,0.54
2022-12-23T14:54:15.395Z,0.53
2022-12-23T15:04:26.571Z,0.54
2022-12-23T15:14:34.787Z,0.55
2022-12-23T15:24:43.295Z,0.56
2022-12-23T15:34:48.424Z,0.56
2022-12-23T15:44:53.924Z,0.58
2022-12-23T15:55:04.442Z,0.59
2022-12-23T16:05:10.235Z,0.57
2022-12-23T16:15:27.499Z,0.56
2022-12-23T16:25:33.948Z,0.54
2022-12-23T16:35:38.968Z,0.56
2022-12-23T16:45:50.531Z,0.54
2022-12-23T16:56:00.849Z,0.56
2022-12-23T17:06:09.241Z,0.54
2022-12-23T17:16:15.685Z,0.53
2022-12-23T17:26:20.619Z,0.49
2022-12-23T17:36:23.959Z,0.49
2022-12-23T17:46:30.749Z,0.51
2022-12-23T17:56:35.495Z,0.48
2022-12-23T18:06:43.149Z,0.46
2022-12-23T18:16:48.365Z,0.47
2022-12-23T18:26:53.861Z,0.49
2022-12-23T18:36:58.731Z,0.52
2022-12-23T18:47:03.597Z,0.54
2022-12-23T18:57:07.110Z,0.58
2022-12-23T19:07:13.049Z,0.60
2022-12-23T19:17:18.204Z,0.64
2022-12-23T19:27:23.633Z,0.68
2022-12-23T19:37:27.612Z,0.72
2022-12-23T19:47:32.454Z,0.76
2022-12-23T19:57:35.438Z,0.77
2022-12-23T20:07:41.197Z,0.80
2022-12-23T20:17:47.851Z,0.84
2022-12-23T20:28:05.063Z,0.88
2022-12-23T20:38:11.534Z,0.92
2022-12-23T20:59:00.658Z,0.95
2022-12-23T21:09:12.146Z,0.97
2022-12-23T21:19:18.571Z,1.01
2022-12-23T21:29:29.807Z,1.02
2022-12-23T21:39:42.245Z,1.04
2022-12-23T21:49:46.914Z,1.07
2022-12-23T21:59:50.026Z,1.10
2022-12-23T22:09:54.785Z,1.13
2022-12-23T22:19:57.878Z,1.17
2022-12-23T22:30:02.419Z,1.20
2022-12-23T22:40:07.114Z,1.21
2022-12-23T22:50:12.579Z,1.25
2022-12-23T23:00:17.890Z,1.25
2022-12-23T23:10:22.558Z,1.28
2022-12-23T23:20:25.584Z,1.25
2022-12-23T23:30:31.646Z,1.27
2022-12-23T23:40:37.852Z,1.31
